createdAt,value
2022-08-07T00:02:39.724Z,60.38
2022-08-07T00:05:06.965Z,60.65
2022-08-07T00:07:40.379Z,60.68
2022-08-07T00:10:25.843Z,60.71
2022-08-07T00:12:59.866Z,60.30
2022-08-07T00:15:37.797Z,60.52
2022-08-07T00:18:09.295Z,60.48
2022-08-07T00:20:49.766Z,60.60
2022-08-07T00:23:21.138Z,60.70
2022-08-07T00:25:58.879Z,60.93
2022-08-07T00:28:34.366Z,60.76
2022-08-07T00:31:12.314Z,61.11
2022-08-07T00:33:42.426Z,60.88
2022-08-07T00:36:11.530Z,61.21
2022-08-07T00:38:40.947Z,61.39
2022-08-07T00:41:14.950Z,61.27
2022-08-07T00:43:59.261Z,61.57
2022-08-07T00:46:33.217Z,61.43
2022-08-07T00:49:03.777Z,61.85
2022-08-07T00:56:00.330Z,61.00
2022-08-07T00:58:22.395Z,61.79
2022-08-07T01:00:54.017Z,61.60
2022-08-07T01:03:54.703Z,62.11
2022-08-07T01:06:11.402Z,62.29
2022-08-07T01:08:43.176Z,62.13
2022-08-07T01:12:05.005Z,62.21
2022-08-07T01:14:10.864Z,62.23
2022-08-07T01:16:43.081Z,62.34
2022-08-07T01:19:18.499Z,61.64
2022-08-07T01:21:49.890Z,61.29
2022-08-07T01:24:22.534Z,60.83
2022-08-07T01:26:54.181Z,61.76
2022-08-07T01:29:27.956Z,61.83
2022-08-07T01:32:00.502Z,61.47
2022-08-07T01:34:36.791Z,61.33
2022-08-07T01:37:09.806Z,61.43
2022-08-07T01:39:41.386Z,61.99
2022-08-07T01:42:38.186Z,62.14
2022-08-07T01:45:09.642Z,61.68
2022-08-07T01:48:18.299Z,62.34
2022-08-07T01:50:28.954Z,63.16
2022-08-07T01:52:59.719Z,62.94
2022-08-07T01:55:38.964Z,62.97
2022-08-07T01:58:29.085Z,62.88
2022-08-07T02:01:10.320Z,63.07
2022-08-07T02:04:13.341Z,63.60
2022-08-07T02:06:44.372Z,62.84
2022-08-07T02:09:51.958Z,63.59
2022-08-07T02:12:18.166Z,63.56
2022-08-07T02:14:54.256Z,63.64
2022-08-07T02:17:27.591Z,63.78
2022-08-07T02:20:04.322Z,64.48
2022-08-07T02:22:38.377Z,65.17
2022-08-07T02:25:17.146Z,66.02
2022-08-07T02:27:51.946Z,66.16
2022-08-07T02:30:24.244Z,66.54
2022-08-07T02:33:03.591Z,65.56
2022-08-07T02:36:28.417Z,66.78
2022-08-07T02:38:39.122Z,66.70
2022-08-07T02:41:21.883Z,66.86
2022-08-07T02:43:50.990Z,66.98
2022-08-07T02:46:25.837Z,67.41
2022-08-07T02:48:55.019Z,67.44
2022-08-07T02:51:42.938Z,68.07
2022-08-07T02:54:14.668Z,68.48
2022-08-07T02:56:44.701Z,68.33
2022-08-07T02:59:23.863Z,68.56
2022-08-07T03:01:56.495Z,68.76
2022-08-07T03:04:29.758Z,68.55
2022-08-07T03:06:58.679Z,68.58
2022-08-07T03:09:44.643Z,69.39
2022-08-07T03:12:21.923Z,69.88
2022-08-07T03:14:52.944Z,69.51
2022-08-07T03:17:22.138Z,69.63
2022-08-07T03:19:54.685Z,69.92
2022-08-07T03:22:29.533Z,69.97
2022-08-07T03:25:00.783Z,70.25
2022-08-07T03:27:30.494Z,69.97
2022-08-07T03:30:18.556Z,69.83
2022-08-07T03:32:59.184Z,70.08
2022-08-07T03:35:37.916Z,70.43
2022-08-07T03:38:13.838Z,70.90
2022-08-07T03:40:44.202Z,70.44
2022-08-07T03:43:14.519Z,70.41
2022-08-07T03:45:47.880Z,70.70
2022-08-07T03:48:17.390Z,70.40
2022-08-07T03:50:55.652Z,70.31
2022-08-07T03:53:30.257Z,70.61
2022-08-07T03:56:13.736Z,71.12
2022-08-07T03:59:09.384Z,71.12
2022-08-07T04:01:32.304Z,71.66
2022-08-07T04:04:04.764Z,71.67
2022-08-07T04:06:37.661Z,71.37
2022-08-07T04:09:15.363Z,71.19
2022-08-07T04:12:24.267Z,71.41
2022-08-07T04:14:38.848Z,72.15
2022-08-07T04:17:20.108Z,71.73
2022-08-07T04:19:52.240Z,72.37
2022-08-07T04:22:29.266Z,72.04
2022-08-07T04:25:01.585Z,72.11
2022-08-07T04:27:39.255Z,71.57
2022-08-07T04:30:35.899Z,71.75
2022-08-07T04:33:02.560Z,71.54
2022-08-07T04:35:37.079Z,71.63
2022-08-07T04:38:13.209Z,71.88
2022-08-07T04:40:51.640Z,71.51
2022-08-07T04:44:13.118Z,70.89
2022-08-07T04:47:03.982Z,71.76
2022-08-07T04:50:11.139Z,71.46
2022-08-07T04:53:03.092Z,71.56
2022-08-07T04:58:14.159Z,71.15
2022-08-07T05:02:04.941Z,70.67
2022-08-07T05:04:54.991Z,70.91
2022-08-07T05:07:44.136Z,70.77
2022-08-07T05:10:32.079Z,70.59
2022-08-07T05:14:54.447Z,68.96
2022-08-07T05:16:18.457Z,65.08
2022-08-07T05:18:57.491Z,64.87
2022-08-07T05:22:00.519Z,58.25
2022-08-07T05:24:19.351Z,57.42
2022-08-07T05:26:58.637Z,56.85
2022-08-07T05:29:39.017Z,56.22
2022-08-07T05:32:21.150Z,55.88
2022-08-07T05:34:50.704Z,54.37
2022-08-07T05:37:25.409Z,54.34
2022-08-07T05:40:05.574Z,54.05
2022-08-07T05:42:36.983Z,54.19
2022-08-07T05:45:14.500Z,53.17
2022-08-07T05:48:02.643Z,50.68
2022-08-07T05:50:34.193Z,51.25
2022-08-07T05:53:04.045Z,50.95
2022-08-07T05:56:01.872Z,49.75
2022-08-07T05:58:36.806Z,48.00
2022-08-07T06:01:09.221Z,47.13
2022-08-07T06:03:53.413Z,47.36
2022-08-07T06:06:29.584Z,46.03
2022-08-07T06:09:01.191Z,45.57
2022-08-07T06:11:34.815Z,45.70
2022-08-07T06:14:11.547Z,44.89
2022-08-07T06:16:50.356Z,45.02
2022-08-07T06:19:57.798Z,45.56
2022-08-07T06:22:23.035Z,44.92
2022-08-07T06:24:57.650Z,46.42
2022-08-07T06:28:00.412Z,47.00
2022-08-07T06:30:31.783Z,43.03
2022-08-07T06:33:04.903Z,44.07
2022-08-07T06:35:45.260Z,44.47
2022-08-07T06:38:20.521Z,44.13
2022-08-07T06:40:52.892Z,43.50
2022-08-07T06:43:24.446Z,41.98
2022-08-07T06:45:55.368Z,41.08
2022-08-07T06:48:28.788Z,40.82
2022-08-07T06:51:07.994Z,40.78
2022-08-07T06:54:11.910Z,40.21
2022-08-07T06:56:49.633Z,40.81
2022-08-07T07:00:11.364Z,40.52
2022-08-07T07:02:48.745Z,40.39
2022-08-07T07:05:14.687Z,40.88
2022-08-07T07:08:07.344Z,41.42
2022-08-07T07:10:38.637Z,41.56
2022-08-07T07:13:55.638Z,39.08
2022-08-07T07:16:45.088Z,38.51
2022-08-07T07:19:55.716Z,38.71
2022-08-07T07:22:35.783Z,38.87
2022-08-07T07:26:31.022Z,37.65
2022-08-07T07:28:41.981Z,37.33
2022-08-07T07:31:39.933Z,37.79
2022-08-07T07:34:20.072Z,38.32
2022-08-07T07:36:54.238Z,37.18
2022-08-07T07:39:25.471Z,37.70
2022-08-07T07:42:12.892Z,35.98
2022-08-07T07:44:49.656Z,36.12
2022-08-07T07:47:23.874Z,35.44
2022-08-07T07:50:35.100Z,35.02
2022-08-07T07:52:46.845Z,34.91
2022-08-07T07:55:19.780Z,35.78
2022-08-07T07:57:53.136Z,34.02
2022-08-07T08:00:29.401Z,35.26
2022-08-07T08:03:16.831Z,35.24
2022-08-07T08:06:00.683Z,34.07
2022-08-07T08:08:36.853Z,33.62
2022-08-07T08:11:16.326Z,33.37
2022-08-07T08:13:53.695Z,33.29
2022-08-07T08:16:35.282Z,33.31
2022-08-07T08:19:18.200Z,32.81
2022-08-07T08:22:32.664Z,33.04
2022-08-07T08:25:42.539Z,32.82
2022-08-07T08:28:10.863Z,30.98
2022-08-07T08:30:42.798Z,31.02
2022-08-07T08:33:20.586Z,30.59
2022-08-07T08:35:51.537Z,31.34
2022-08-07T08:38:30.004Z,33.19
2022-08-07T08:41:23.753Z,33.23
2022-08-07T08:44:29.382Z,30.14
2022-08-07T08:47:17.191Z,28.37
2022-08-07T08:50:09.720Z,27.77
2022-08-07T08:52:54.082Z,28.33
2022-08-07T08:55:54.868Z,28.88
2022-08-07T08:58:56.335Z,28.58
2022-08-07T09:01:40.256Z,28.76
2022-08-07T09:04:42.865Z,29.38
2022-08-07T09:07:46.149Z,29.92
2022-08-07T09:10:45.780Z,30.41
2022-08-07T09:13:37.928Z,29.96
2022-08-07T09:16:30.703Z,28.79
2022-08-07T09:19:52.041Z,28.71
2022-08-07T09:24:30.926Z,27.99
2022-08-07T09:25:44.094Z,29.02
2022-08-07T09:29:24.467Z,28.78
2022-08-07T09:31:38.592Z,28.92
2022-08-07T09:34:26.335Z,28.90
2022-08-07T09:37:48.168Z,29.49
2022-08-07T09:40:59.695Z,30.66
2022-08-07T09:44:10.218Z,31.36
2022-08-07T09:47:51.181Z,30.05
2022-08-07T09:50:32.532Z,29.18
2022-08-07T09:53:08.886Z,29.33
2022-08-07T09:56:03.273Z,28.88
2022-08-07T09:59:37.074Z,31.72
2022-08-07T10:02:29.827Z,32.93
2022-08-07T10:05:59.532Z,32.60
2022-08-07T10:08:43.969Z,29.52
2022-08-07T10:12:02.213Z,31.42
2022-08-07T10:14:43.400Z,31.64
2022-08-07T10:18:08.524Z,30.27
2022-08-07T10:21:29.629Z,30.16
2022-08-07T10:24:39.997Z,31.65
2022-08-07T10:27:47.897Z,31.30
2022-08-07T10:30:28.792Z,31.37
2022-08-07T10:34:04.097Z,32.18
2022-08-07T10:36:36.373Z,31.95
2022-08-07T10:39:57.543Z,31.98
2022-08-07T10:43:08.542Z,32.79
2022-08-07T10:45:57.374Z,33.27
2022-08-07T10:48:48.596Z,31.69
2022-08-07T10:52:01.455Z,31.57
2022-08-07T10:54:40.913Z,30.14
2022-08-07T10:57:34.790Z,29.87
2022-08-07T11:00:39.614Z,30.17
2022-08-07T11:05:48.924Z,30.74
2022-08-07T11:08:38.966Z,30.84
2022-08-07T11:11:35.596Z,30.47
2022-08-07T11:14:57.271Z,30.21
2022-08-07T11:17:43.373Z,30.48
2022-08-07T11:20:25.901Z,30.38
2022-08-07T11:23:30.857Z,33.15
2022-08-07T11:26:11.245Z,30.00
2022-08-07T11:28:55.284Z,30.06
2022-08-07T11:31:47.433Z,30.16
2022-08-07T11:34:54.858Z,29.57
2022-08-07T11:38:09.923Z,29.77
2022-08-07T11:40:59.880Z,30.94
2022-08-07T11:44:14.330Z,29.27
2022-08-07T11:46:51.285Z,29.14
2022-08-07T11:50:11.478Z,30.01
2022-08-07T11:52:58.644Z,29.58
2022-08-07T11:56:09.115Z,29.72
2022-08-07T12:00:10.576Z,29.51
2022-08-07T12:02:37.549Z,29.12
2022-08-07T12:05:49.595Z,29.34
2022-08-07T12:08:40.244Z,28.93
2022-08-07T12:12:08.779Z,28.99
2022-08-07T12:15:17.390Z,30.35
2022-08-07T12:18:29.832Z,29.34
2022-08-07T12:22:36.567Z,30.14
2022-08-07T12:24:37.600Z,29.86
2022-08-07T12:27:28.142Z,29.55
2022-08-07T12:30:09.986Z,29.35
2022-08-07T12:33:02.978Z,29.24
2022-08-07T12:35:57.716Z,29.23
2022-08-07T12:38:42.485Z,29.87
2022-08-07T12:41:12.806Z,28.45
2022-08-07T12:44:02.943Z,28.70
2022-08-07T12:46:46.572Z,28.55
2022-08-07T12:49:56.699Z,33.09
2022-08-07T12:53:18.556Z,29.06
2022-08-07T12:56:35.762Z,28.78
2022-08-07T12:59:08.397Z,29.16
2022-08-07T13:02:33.158Z,28.51
2022-08-07T13:06:03.507Z,28.41
2022-08-07T13:08:30.767Z,28.47
2022-08-07T13:11:26.065Z,28.53
2022-08-07T13:14:46.756Z,28.95
2022-08-07T13:17:22.128Z,30.07
2022-08-07T13:20:17.791Z,28.74
2022-08-07T13:24:01.086Z,28.08
2022-08-07T13:26:19.968Z,28.10
2022-08-07T13:29:12.896Z,28.05
2022-08-07T13:32:23.812Z,28.31
2022-08-07T13:35:21.479Z,28.00
2022-08-07T13:38:05.427Z,28.81
2022-08-07T13:40:59.080Z,29.08
2022-08-07T13:43:34.343Z,27.77
2022-08-07T13:46:11.801Z,27.87
2022-08-07T13:48:58.596Z,27.99
2022-08-07T13:52:19.083Z,27.83
2022-08-07T13:54:23.920Z,27.74
2022-08-07T13:56:59.889Z,27.18
2022-08-07T13:59:33.282Z,27.58
2022-08-07T14:02:13.188Z,28.23
2022-08-07T14:04:50.311Z,27.38
2022-08-07T14:07:25.775Z,27.34
2022-08-07T14:10:16.503Z,27.65
2022-08-07T14:12:55.751Z,27.80
2022-08-07T14:15:47.193Z,27.42
2022-08-07T14:18:49.901Z,27.47
2022-08-07T14:22:02.554Z,27.03
2022-08-07T14:24:37.509Z,26.38
2022-08-07T14:28:11.254Z,26.53
2022-08-07T14:30:12.289Z,26.93
2022-08-07T14:33:04.417Z,26.54
2022-08-07T14:35:45.349Z,27.52
2022-08-07T14:38:30.847Z,27.75
2022-08-07T14:41:12.469Z,26.87
2022-08-07T14:43:57.699Z,27.45
2022-08-07T14:46:37.142Z,28.05
2022-08-07T14:49:57.995Z,28.78
2022-08-07T14:52:10.480Z,28.78
2022-08-07T14:54:44.959Z,27.75
2022-08-07T14:57:19.757Z,27.11
2022-08-07T15:02:40.493Z,27.25
2022-08-07T15:08:00.025Z,27.33
2022-08-07T15:10:29.993Z,27.53
2022-08-07T15:13:25.432Z,27.34
2022-08-07T15:19:00.700Z,27.37
2022-08-07T15:21:58.561Z,27.48
2022-08-07T15:25:15.071Z,27.96
2022-08-07T15:27:29.085Z,28.14
2022-08-07T15:30:16.465Z,27.62
2022-08-07T15:32:50.713Z,28.65
2022-08-07T15:38:51.932Z,29.19
2022-08-07T15:42:44.051Z,28.46
2022-08-07T15:44:16.112Z,27.13
2022-08-07T15:46:52.336Z,26.84
2022-08-07T15:50:04.878Z,26.43
2022-08-07T15:52:30.341Z,26.06
2022-08-07T15:55:08.552Z,26.57
2022-08-07T15:57:40.070Z,26.61
2022-08-07T16:00:31.296Z,27.30
2022-08-07T16:03:20.456Z,26.15
2022-08-07T16:05:51.904Z,26.60
2022-08-07T16:08:33.521Z,26.52
2022-08-07T16:11:53.769Z,27.06
2022-08-07T16:14:59.424Z,26.79
2022-08-07T16:18:02.313Z,27.78
2022-08-07T16:22:03.242Z,28.24
2022-08-07T16:24:35.089Z,27.92
2022-08-07T16:27:39.763Z,28.70
2022-08-07T16:30:31.115Z,28.76
2022-08-07T16:34:01.723Z,29.47
2022-08-07T16:36:08.024Z,28.26
2022-08-07T16:39:40.246Z,29.08
2022-08-07T16:43:07.391Z,29.41
2022-08-07T16:46:33.694Z,28.79
2022-08-07T16:50:27.098Z,29.07
2022-08-07T16:52:57.582Z,29.07
2022-08-07T16:55:47.503Z,29.17
2022-08-07T16:59:10.926Z,29.58
2022-08-07T17:02:13.012Z,29.71
2022-08-07T17:06:19.247Z,29.05
2022-08-07T17:09:09.070Z,28.67
2022-08-07T17:12:04.349Z,28.87
2022-08-07T17:14:59.087Z,28.63
2022-08-07T17:17:46.341Z,28.55
2022-08-07T17:20:41.881Z,29.52
2022-08-07T17:23:32.377Z,30.06
2022-08-07T17:26:30.742Z,29.04
2022-08-07T17:30:15.416Z,29.35
2022-08-07T17:34:09.529Z,29.34
2022-08-07T17:36:20.070Z,29.39
2022-08-07T17:39:10.410Z,29.13
2022-08-07T17:42:02.452Z,28.82
2022-08-07T17:44:56.170Z,30.25
2022-08-07T17:47:42.827Z,30.73
2022-08-07T17:50:54.393Z,30.56
2022-08-07T17:53:59.676Z,30.74
2022-08-07T17:56:30.677Z,31.25
2022-08-07T17:59:09.104Z,31.69
2022-08-07T18:02:07.685Z,31.34
2022-08-07T18:05:21.556Z,31.15
2022-08-07T18:09:01.439Z,31.39
2022-08-07T18:12:17.653Z,31.70
2022-08-07T18:14:46.682Z,32.14
2022-08-07T18:18:44.993Z,31.42
2022-08-07T18:21:07.642Z,31.98
2022-08-07T18:23:42.100Z,32.23
2022-08-07T18:26:16.292Z,32.15
2022-08-07T18:29:04.485Z,32.69
2022-08-07T18:32:01.183Z,32.83
2022-08-07T18:35:00.709Z,32.97
2022-08-07T18:38:57.225Z,33.23
2022-08-07T18:41:45.844Z,33.15
2022-08-07T18:48:01.626Z,33.62
2022-08-07T18:50:48.407Z,33.62
2022-08-07T18:53:56.618Z,34.18
2022-08-07T18:56:38.934Z,33.84
2022-08-07T18:59:46.765Z,33.78
2022-08-07T19:03:12.359Z,34.54
2022-08-07T19:06:05.113Z,34.12
2022-08-07T19:08:58.615Z,34.80
2022-08-07T19:12:05.054Z,34.97
2022-08-07T19:16:02.184Z,35.34
2022-08-07T19:18:35.040Z,35.40
2022-08-07T19:21:56.022Z,36.25
2022-08-07T19:24:48.818Z,36.39
2022-08-07T19:28:58.666Z,36.21
2022-08-07T19:30:56.821Z,36.53
2022-08-07T19:33:12.917Z,36.43
2022-08-07T19:35:43.148Z,36.47
2022-08-07T19:38:17.547Z,36.89
2022-08-07T19:40:50.176Z,36.31
2022-08-07T19:43:48.698Z,36.89
2022-08-07T19:46:26.322Z,36.27
2022-08-07T19:49:07.279Z,36.42
2022-08-07T19:51:52.184Z,36.10
2022-08-07T19:54:35.069Z,36.33
2022-08-07T19:58:01.222Z,37.11
2022-08-07T20:00:11.134Z,36.46
2022-08-07T20:03:05.429Z,36.74
2022-08-07T20:06:03.931Z,37.72
2022-08-07T20:08:39.546Z,37.55
2022-08-07T20:11:34.241Z,36.99
2022-08-07T20:14:20.639Z,37.21
2022-08-07T20:16:54.379Z,37.22
2022-08-07T20:19:28.891Z,38.00
2022-08-07T20:22:28.959Z,37.69
2022-08-07T20:25:12.962Z,37.41
2022-08-07T20:27:57.932Z,37.70
2022-08-07T20:30:36.250Z,37.71
2022-08-07T20:33:36.181Z,38.32
2022-08-07T20:36:03.585Z,37.96
2022-08-07T20:38:32.275Z,37.66
2022-08-07T20:41:05.572Z,37.75
2022-08-07T20:43:38.566Z,37.62
2022-08-07T20:46:25.698Z,38.48
2022-08-07T20:50:01.088Z,38.09
2022-08-07T20:51:51.183Z,38.12
2022-08-07T20:54:29.972Z,38.43
2022-08-07T20:57:05.955Z,38.51
2022-08-07T21:00:07.011Z,38.61
2022-08-07T21:02:54.386Z,38.11
2022-08-07T21:05:50.764Z,39.11
2022-08-07T21:08:36.988Z,38.77
2022-08-07T21:11:14.765Z,39.63
2022-08-07T21:14:16.944Z,38.63
2022-08-07T21:17:06.771Z,38.85
2022-08-07T21:19:51.260Z,39.09
2022-08-07T21:22:29.148Z,38.75
2022-08-07T21:25:12.270Z,38.28
2022-08-07T21:28:09.216Z,38.73
2022-08-07T21:30:50.705Z,39.25
2022-08-07T21:33:22.635Z,38.85
2022-08-07T21:36:49.935Z,39.42
2022-08-07T21:40:01.226Z,39.17
2022-08-07T21:42:57.972Z,40.71
2022-08-07T21:46:07.677Z,38.95
2022-08-07T21:48:56.471Z,40.34
2022-08-07T21:51:28.375Z,39.92
2022-08-07T21:54:35.919Z,40.46
2022-08-07T21:57:39.521Z,39.49
2022-08-07T22:00:22.713Z,40.26
2022-08-07T22:03:17.220Z,41.60
2022-08-07T22:06:30.821Z,40.38
2022-08-07T22:09:13.499Z,41.48
2022-08-07T22:11:53.040Z,40.67
2022-08-07T22:16:45.175Z,40.58
2022-08-07T22:18:00.930Z,40.91
2022-08-07T22:20:54.069Z,41.79
2022-08-07T22:23:45.213Z,42.75
2022-08-07T22:26:28.340Z,42.54
2022-08-07T22:29:14.006Z,41.48
2022-08-07T22:32:07.384Z,42.16
2022-08-07T22:34:53.061Z,42.04
2022-08-07T22:38:01.930Z,41.75
2022-08-07T22:41:07.622Z,43.49
2022-08-07T22:44:03.561Z,41.46
2022-08-07T22:47:09.437Z,41.35
2022-08-07T22:49:58.373Z,42.75
2022-08-07T22:52:50.606Z,42.43
2022-08-07T22:55:49.676Z,42.14
2022-08-07T22:58:45.328Z,41.27
2022-08-07T23:01:42.156Z,41.76
2022-08-07T23:04:58.516Z,41.99
2022-08-07T23:08:30.635Z,41.24
2022-08-07T23:11:59.183Z,41.28
2022-08-07T23:14:48.794Z,41.75
2022-08-07T23:18:00.901Z,41.91
2022-08-07T23:21:00.429Z,42.58
2022-08-07T23:24:06.006Z,42.20
2022-08-07T23:27:01.383Z,42.12
2022-08-07T23:30:39.407Z,42.17
2022-08-07T23:34:36.659Z,43.41
2022-08-07T23:36:28.852Z,44.39
2022-08-07T23:39:16.807Z,42.13
2022-08-07T23:42:15.662Z,42.53
2022-08-07T23:45:50.033Z,42.74
2022-08-07T23:48:47.241Z,42.61
2022-08-07T23:53:01.447Z,42.84
2022-08-07T23:54:44.136Z,43.00
2022-08-07T23:57:20.480Z,42.93
